sensor_id;sensor_type;location;lat;lon;timestamp;P1;durP1;ratioP1;P2;durP2;ratioP2
8048;SDS011;20935;42.660;23.342;2022-12-18T00:00:20;5.63;;;5.07;;
8048;SDS011;20935;42.660;23.342;2022-12-18T00:02:46;5.77;;;5.13;;
8048;SDS011;20935;42.660;23.342;2022-12-18T00:05:11;6.10;;;5.50;;
8048;SDS011;20935;42.660;23.342;2022-12-18T00:07:36;7.03;;;5.57;;
8048;SDS011;20935;42.660;23.342;2022-12-18T00:10:05;6.20;;;5.60;;
8048;SDS011;20935;42.660;23.342;2022-12-18T00:12:31;5.97;;;5.37;;
8048;SDS011;20935;42.660;23.342;2022-12-18T00:14:56;8.33;;;6.03;;
8048;SDS011;20935;42.660;23.342;2022-12-18T00:17:25;7.50;;;6.70;;
8048;SDS011;20935;42.660;23.342;2022-12-18T00:19:50;7.17;;;6.47;;
8048;SDS011;20935;42.660;23.342;2022-12-18T00:22:18;7.20;;;6.37;;
8048;SDS011;20935;42.660;23.342;2022-12-18T00:24:44;6.77;;;5.33;;
8048;SDS011;20935;42.660;23.342;2022-12-18T00:27:12;8.30;;;6.40;;
8048;SDS011;20935;42.660;23.342;2022-12-18T00:29:41;8.27;;;6.83;;
8048;SDS011;20935;42.660;23.342;2022-12-18T00:32:06;8.13;;;7.20;;
8048;SDS011;20935;42.660;23.342;2022-12-18T00:34:31;7.13;;;6.07;;
8048;SDS011;20935;42.660;23.342;2022-12-18T00:36:56;7.87;;;7.07;;
8048;SDS011;20935;42.660;23.342;2022-12-18T00:39:22;8.93;;;7.20;;
8048;SDS011;20935;42.660;23.342;2022-12-18T00:41:47;8.20;;;6.87;;
8048;SDS011;20935;42.660;23.342;2022-12-18T00:44:31;9.30;;;7.40;;
8048;SDS011;20935;42.660;23.342;2022-12-18T00:46:57;8.27;;;7.43;;
8048;SDS011;20935;42.660;23.342;2022-12-18T00:49:22;7.50;;;6.80;;
8048;SDS011;20935;42.660;23.342;2022-12-18T00:51:48;9.13;;;7.70;;
8048;SDS011;20935;42.660;23.342;2022-12-18T00:54:14;8.43;;;7.53;;
8048;SDS011;20935;42.660;23.342;2022-12-18T00:56:39;11.03;;;8.40;;
8048;SDS011;20935;42.660;23.342;2022-12-18T00:59:05;9.80;;;7.97;;
8048;SDS011;20935;42.660;23.342;2022-12-18T01:01:30;9.93;;;8.13;;
8048;SDS011;20935;42.660;23.342;2022-12-18T01:03:59;9.23;;;8.23;;
8048;SDS011;20935;42.660;23.342;2022-12-18T01:06:24;9.07;;;8.13;;
8048;SDS011;20935;42.660;23.342;2022-12-18T01:08:49;10.53;;;9.43;;
8048;SDS011;20935;42.660;23.342;2022-12-18T01:11:16;11.03;;;8.63;;
8048;SDS011;20935;42.660;23.342;2022-12-18T01:13:42;11.50;;;9.37;;
8048;SDS011;20935;42.660;23.342;2022-12-18T01:16:07;10.70;;;9.13;;
8048;SDS011;20935;42.660;23.342;2022-12-18T01:18:33;11.37;;;8.33;;
8048;SDS011;20935;42.660;23.342;2022-12-18T01:20:59;10.07;;;7.90;;
8048;SDS011;20935;42.660;23.342;2022-12-18T01:23:27;9.67;;;7.57;;
8048;SDS011;20935;42.660;23.342;2022-12-18T01:25:53;10.03;;;7.43;;
8048;SDS011;20935;42.660;23.342;2022-12-18T01:28:18;10.97;;;8.07;;
8048;SDS011;20935;42.660;23.342;2022-12-18T01:30:43;9.73;;;8.20;;
8048;SDS011;20935;42.660;23.342;2022-12-18T01:33:09;10.07;;;8.07;;
8048;SDS011;20935;42.660;23.342;2022-12-18T01:35:43;10.60;;;8.00;;
8048;SDS011;20935;42.660;23.342;2022-12-18T01:38:09;9.80;;;7.97;;
8048;SDS011;20935;42.660;23.342;2022-12-18T01:40:34;9.27;;;7.53;;
8048;SDS011;20935;42.660;23.342;2022-12-18T01:43:00;10.53;;;8.80;;
8048;SDS011;20935;42.660;23.342;2022-12-18T01:45:29;12.93;;;9.43;;
8048;SDS011;20935;42.660;23.342;2022-12-18T01:48:01;11.10;;;8.43;;
8048;SDS011;20935;42.660;23.342;2022-12-18T01:50:36;9.83;;;8.27;;
8048;SDS011;20935;42.660;23.342;2022-12-18T01:53:04;10.93;;;7.93;;
8048;SDS011;20935;42.660;23.342;2022-12-18T01:55:38;9.93;;;7.97;;
8048;SDS011;20935;42.660;23.342;2022-12-18T01:58:06;9.93;;;8.87;;
8048;SDS011;20935;42.660;23.342;2022-12-18T02:00:31;10.17;;;8.33;;
8048;SDS011;20935;42.660;23.342;2022-12-18T02:02:57;10.43;;;8.77;;
8048;SDS011;20935;42.660;23.342;2022-12-18T02:08:10;10.33;;;7.90;;
8048;SDS011;20935;42.660;23.342;2022-12-18T02:17:58;11.30;;;8.17;;
8048;SDS011;20935;42.660;23.342;2022-12-18T02:20:32;10.43;;;7.93;;
8048;SDS011;20935;42.660;23.342;2022-12-18T02:25:36;9.80;;;7.97;;
8048;SDS011;20935;42.660;23.342;2022-12-18T02:28:03;11.77;;;9.53;;
8048;SDS011;20935;42.660;23.342;2022-12-18T02:30:31;9.93;;;8.53;;
8048;SDS011;20935;42.660;23.342;2022-12-18T02:33:00;10.67;;;9.10;;
8048;SDS011;20935;42.660;23.342;2022-12-18T02:35:30;10.13;;;8.27;;
8048;SDS011;20935;42.660;23.342;2022-12-18T02:37:56;10.90;;;8.90;;
8048;SDS011;20935;42.660;23.342;2022-12-18T02:40:23;10.30;;;7.73;;
8048;SDS011;20935;42.660;23.342;2022-12-18T02:42:52;10.87;;;7.77;;
8048;SDS011;20935;42.660;23.342;2022-12-18T02:45:17;10.27;;;8.37;;
8048;SDS011;20935;42.660;23.342;2022-12-18T02:47:43;11.83;;;8.23;;
8048;SDS011;20935;42.660;23.342;2022-12-18T02:50:16;9.57;;;7.83;;
8048;SDS011;20935;42.660;23.342;2022-12-18T02:58:47;9.70;;;8.70;;
8048;SDS011;20935;42.660;23.342;2022-12-18T03:08:44;9.43;;;7.33;;
8048;SDS011;20935;42.660;23.342;2022-12-18T03:11:12;11.17;;;6.30;;
8048;SDS011;20935;42.660;23.342;2022-12-18T03:16:03;9.37;;;8.37;;
8048;SDS011;20935;42.660;23.342;2022-12-18T03:18:37;8.73;;;7.43;;
8048;SDS011;20935;42.660;23.342;2022-12-18T03:21:04;10.37;;;8.27;;
8048;SDS011;20935;42.660;23.342;2022-12-18T03:23:32;9.17;;;7.73;;
8048;SDS011;20935;42.660;23.342;2022-12-18T03:25:59;11.27;;;7.93;;
8048;SDS011;20935;42.660;23.342;2022-12-18T03:28:26;10.13;;;8.33;;
8048;SDS011;20935;42.660;23.342;2022-12-18T03:30:55;8.70;;;6.80;;
8048;SDS011;20935;42.660;23.342;2022-12-18T03:33:33;9.00;;;7.43;;
8048;SDS011;20935;42.660;23.342;2022-12-18T03:36:02;9.57;;;7.57;;
8048;SDS011;20935;42.660;23.342;2022-12-18T03:38:27;8.60;;;7.10;;
8048;SDS011;20935;42.660;23.342;2022-12-18T03:41:02;10.13;;;8.17;;
8048;SDS011;20935;42.660;23.342;2022-12-18T03:48:43;10.07;;;7.10;;
8048;SDS011;20935;42.660;23.342;2022-12-18T03:51:24;9.40;;;7.57;;
8048;SDS011;20935;42.660;23.342;2022-12-18T03:54:00;8.80;;;6.70;;
8048;SDS011;20935;42.660;23.342;2022-12-18T03:56:28;7.83;;;6.93;;
8048;SDS011;20935;42.660;23.342;2022-12-18T03:58:57;10.50;;;7.23;;
8048;SDS011;20935;42.660;23.342;2022-12-18T04:01:29;9.10;;;8.03;;
8048;SDS011;20935;42.660;23.342;2022-12-18T04:03:59;12.37;;;7.90;;
8048;SDS011;20935;42.660;23.342;2022-12-18T04:06:25;9.93;;;7.90;;
8048;SDS011;20935;42.660;23.342;2022-12-18T04:08:51;10.13;;;8.07;;
8048;SDS011;20935;42.660;23.342;2022-12-18T04:11:17;9.10;;;7.90;;
8048;SDS011;20935;42.660;23.342;2022-12-18T04:13:42;9.03;;;7.93;;
8048;SDS011;20935;42.660;23.342;2022-12-18T04:16:07;10.67;;;8.07;;
8048;SDS011;20935;42.660;23.342;2022-12-18T04:18:35;8.43;;;6.93;;
8048;SDS011;20935;42.660;23.342;2022-12-18T04:21:01;11.13;;;8.23;;
8048;SDS011;20935;42.660;23.342;2022-12-18T04:23:26;12.60;;;7.53;;
8048;SDS011;20935;42.660;23.342;2022-12-18T04:25:52;9.80;;;7.77;;
8048;SDS011;20935;42.660;23.342;2022-12-18T04:28:17;9.47;;;8.40;;
8048;SDS011;20935;42.660;23.342;2022-12-18T04:30:42;10.70;;;7.47;;
8048;SDS011;20935;42.660;23.342;2022-12-18T04:33:11;9.70;;;7.70;;
8048;SDS011;20935;42.660;23.342;2022-12-18T04:35:41;7.47;;;6.57;;
8048;SDS011;20935;42.660;23.342;2022-12-18T04:38:07;9.83;;;7.57;;
8048;SDS011;20935;42.660;23.342;2022-12-18T04:40:36;11.07;;;8.03;;
8048;SDS011;20935;42.660;23.342;2022-12-18T04:43:02;9.57;;;7.87;;
8048;SDS011;20935;42.660;23.342;2022-12-18T04:45:27;10.00;;;8.43;;
8048;SDS011;20935;42.660;23.342;2022-12-18T04:47:52;11.17;;;8.60;;
8048;SDS011;20935;42.660;23.342;2022-12-18T04:50:18;11.23;;;8.53;;
8048;SDS011;20935;42.660;23.342;2022-12-18T04:52:43;11.27;;;9.00;;
8048;SDS011;20935;42.660;23.342;2022-12-18T04:55:08;11.30;;;8.07;;
8048;SDS011;20935;42.660;23.342;2022-12-18T04:57:34;13.67;;;9.47;;
8048;SDS011;20935;42.660;23.342;2022-12-18T05:00:02;12.43;;;8.87;;
8048;SDS011;20935;42.660;23.342;2022-12-18T05:02:28;11.70;;;8.50;;
8048;SDS011;20935;42.660;23.342;2022-12-18T05:04:53;10.80;;;8.47;;
8048;SDS011;20935;42.660;23.342;2022-12-18T05:07:18;12.20;;;8.03;;
8048;SDS011;20935;42.660;23.342;2022-12-18T05:09:44;12.23;;;9.10;;
8048;SDS011;20935;42.660;23.342;2022-12-18T05:12:09;16.03;;;10.30;;
8048;SDS011;20935;42.660;23.342;2022-12-18T05:14:34;12.97;;;9.23;;
8048;SDS011;20935;42.660;23.342;2022-12-18T05:17:00;11.90;;;8.73;;
8048;SDS011;20935;42.660;23.342;2022-12-18T05:19:28;11.63;;;9.57;;
8048;SDS011;20935;42.660;23.342;2022-12-18T05:21:53;13.30;;;10.50;;
8048;SDS011;20935;42.660;23.342;2022-12-18T05:24:19;12.67;;;9.70;;
8048;SDS011;20935;42.660;23.342;2022-12-18T05:26:44;10.17;;;8.43;;
8048;SDS011;20935;42.660;23.342;2022-12-18T05:29:09;13.47;;;9.70;;
8048;SDS011;20935;42.660;23.342;2022-12-18T05:31:37;14.23;;;10.03;;
8048;SDS011;20935;42.660;23.342;2022-12-18T05:34:02;15.43;;;11.00;;
8048;SDS011;20935;42.660;23.342;2022-12-18T05:36:28;12.60;;;9.10;;
8048;SDS011;20935;42.660;23.342;2022-12-18T05:38:53;14.47;;;9.80;;
8048;SDS011;20935;42.660;23.342;2022-12-18T05:41:18;11.23;;;9.30;;
8048;SDS011;20935;42.660;23.342;2022-12-18T05:43:44;13.00;;;9.03;;
8048;SDS011;20935;42.660;23.342;2022-12-18T05:46:14;13.20;;;9.20;;
8048;SDS011;20935;42.660;23.342;2022-12-18T05:48:39;14.00;;;9.80;;
8048;SDS011;20935;42.660;23.342;2022-12-18T05:51:09;15.10;;;10.47;;
8048;SDS011;20935;42.660;23.342;2022-12-18T05:53:35;10.43;;;8.17;;
8048;SDS011;20935;42.660;23.342;2022-12-18T05:56:02;11.77;;;8.93;;
8048;SDS011;20935;42.660;23.342;2022-12-18T05:58:28;13.10;;;9.97;;
8048;SDS011;20935;42.660;23.342;2022-12-18T06:00:53;13.60;;;9.23;;
8048;SDS011;20935;42.660;23.342;2022-12-18T06:03:26;12.43;;;8.43;;
8048;SDS011;20935;42.660;23.342;2022-12-18T06:05:51;14.70;;;10.20;;
8048;SDS011;20935;42.660;23.342;2022-12-18T06:08:16;14.23;;;10.00;;
8048;SDS011;20935;42.660;23.342;2022-12-18T06:10:42;14.07;;;9.63;;
8048;SDS011;20935;42.660;23.342;2022-12-18T06:13:14;17.00;;;10.60;;
8048;SDS011;20935;42.660;23.342;2022-12-18T06:15:39;16.13;;;10.23;;
8048;SDS011;20935;42.660;23.342;2022-12-18T06:18:05;16.60;;;10.53;;
8048;SDS011;20935;42.660;23.342;2022-12-18T06:20:30;17.27;;;11.13;;
8048;SDS011;20935;42.660;23.342;2022-12-18T06:22:55;14.77;;;11.03;;
8048;SDS011;20935;42.660;23.342;2022-12-18T06:25:21;14.13;;;9.53;;
8048;SDS011;20935;42.660;23.342;2022-12-18T06:27:47;15.73;;;11.03;;
8048;SDS011;20935;42.660;23.342;2022-12-18T06:30:12;13.53;;;10.17;;
8048;SDS011;20935;42.660;23.342;2022-12-18T06:32:38;16.73;;;11.73;;
8048;SDS011;20935;42.660;23.342;2022-12-18T06:35:03;16.03;;;11.43;;
8048;SDS011;20935;42.660;23.342;2022-12-18T06:37:30;18.80;;;10.90;;
8048;SDS011;20935;42.660;23.342;2022-12-18T06:39:55;18.87;;;11.93;;
8048;SDS011;20935;42.660;23.342;2022-12-18T06:42:21;15.47;;;11.57;;
8048;SDS011;20935;42.660;23.342;2022-12-18T06:44:49;14.40;;;10.87;;
8048;SDS011;20935;42.660;23.342;2022-12-18T06:47:17;14.77;;;10.93;;
8048;SDS011;20935;42.660;23.342;2022-12-18T06:49:43;11.57;;;7.27;;
8048;SDS011;20935;42.660;23.342;2022-12-18T06:52:08;17.57;;;12.03;;
8048;SDS011;20935;42.660;23.342;2022-12-18T06:54:33;14.60;;;11.07;;
8048;SDS011;20935;42.660;23.342;2022-12-18T06:57:02;17.47;;;12.70;;
8048;SDS011;20935;42.660;23.342;2022-12-18T06:59:27;18.83;;;12.10;;
8048;SDS011;20935;42.660;23.342;2022-12-18T07:01:52;16.33;;;11.80;;
8048;SDS011;20935;42.660;23.342;2022-12-18T07:04:18;16.60;;;12.53;;
8048;SDS011;20935;42.660;23.342;2022-12-18T07:06:44;16.17;;;11.57;;
8048;SDS011;20935;42.660;23.342;2022-12-18T07:09:09;17.17;;;11.67;;
8048;SDS011;20935;42.660;23.342;2022-12-18T07:11:35;15.43;;;11.00;;
8048;SDS011;20935;42.660;23.342;2022-12-18T07:14:01;17.17;;;11.70;;
8048;SDS011;20935;42.660;23.342;2022-12-18T07:16:27;15.30;;;10.77;;
8048;SDS011;20935;42.660;23.342;2022-12-18T07:18:55;16.63;;;11.40;;
8048;SDS011;20935;42.660;23.342;2022-12-18T07:21:22;13.73;;;10.40;;
8048;SDS011;20935;42.660;23.342;2022-12-18T07:23:47;17.63;;;12.10;;
8048;SDS011;20935;42.660;23.342;2022-12-18T07:26:13;17.80;;;11.33;;
8048;SDS011;20935;42.660;23.342;2022-12-18T07:28:40;17.83;;;10.47;;
8048;SDS011;20935;42.660;23.342;2022-12-18T07:31:06;17.03;;;10.23;;
8048;SDS011;20935;42.660;23.342;2022-12-18T07:33:32;18.20;;;11.70;;
8048;SDS011;20935;42.660;23.342;2022-12-18T07:36:04;15.73;;;12.37;;
8048;SDS011;20935;42.660;23.342;2022-12-18T07:38:34;18.00;;;11.37;;
8048;SDS011;20935;42.660;23.342;2022-12-18T07:41:02;18.13;;;11.57;;
8048;SDS011;20935;42.660;23.342;2022-12-18T07:43:28;16.43;;;12.67;;
8048;SDS011;20935;42.660;23.342;2022-12-18T07:45:53;17.63;;;12.40;;
8048;SDS011;20935;42.660;23.342;2022-12-18T07:48:19;15.40;;;11.40;;
8048;SDS011;20935;42.660;23.342;2022-12-18T07:50:44;18.27;;;12.27;;
8048;SDS011;20935;42.660;23.342;2022-12-18T07:53:12;19.50;;;13.33;;
8048;SDS011;20935;42.660;23.342;2022-12-18T07:55:42;16.87;;;10.77;;
8048;SDS011;20935;42.660;23.342;2022-12-18T07:58:08;18.57;;;13.40;;
8048;SDS011;20935;42.660;23.342;2022-12-18T08:00:34;20.03;;;14.17;;
8048;SDS011;20935;42.660;23.342;2022-12-18T08:02:59;21.90;;;14.00;;
8048;SDS011;20935;42.660;23.342;2022-12-18T08:05:25;20.47;;;12.73;;
8048;SDS011;20935;42.660;23.342;2022-12-18T08:07:50;19.63;;;13.93;;
8048;SDS011;20935;42.660;23.342;2022-12-18T08:10:19;21.70;;;13.53;;
8048;SDS011;20935;42.660;23.342;2022-12-18T08:12:44;20.57;;;13.87;;
8048;SDS011;20935;42.660;23.342;2022-12-18T08:15:15;20.60;;;14.63;;
8048;SDS011;20935;42.660;23.342;2022-12-18T08:17:41;21.17;;;13.23;;
8048;SDS011;20935;42.660;23.342;2022-12-18T08:20:06;23.57;;;15.17;;
8048;SDS011;20935;42.660;23.342;2022-12-18T08:22:33;21.77;;;15.30;;
8048;SDS011;20935;42.660;23.342;2022-12-18T08:24:59;23.03;;;16.17;;
8048;SDS011;20935;42.660;23.342;2022-12-18T08:27:27;25.83;;;15.97;;
8048;SDS011;20935;42.660;23.342;2022-12-18T08:29:56;21.47;;;15.10;;
8048;SDS011;20935;42.660;23.342;2022-12-18T08:32:25;23.87;;;16.47;;
8048;SDS011;20935;42.660;23.342;2022-12-18T08:34:50;21.73;;;15.10;;
8048;SDS011;20935;42.660;23.342;2022-12-18T08:37:16;23.70;;;15.37;;
8048;SDS011;20935;42.660;23.342;2022-12-18T08:39:44;21.50;;;13.97;;
8048;SDS011;20935;42.660;23.342;2022-12-18T08:42:09;20.60;;;14.63;;
8048;SDS011;20935;42.660;23.342;2022-12-18T08:44:53;20.57;;;14.00;;
8048;SDS011;20935;42.660;23.342;2022-12-18T08:47:19;21.43;;;14.20;;
8048;SDS011;20935;42.660;23.342;2022-12-18T08:49:44;20.97;;;14.00;;
8048;SDS011;20935;42.660;23.342;2022-12-18T08:52:09;18.97;;;13.93;;
8048;SDS011;20935;42.660;23.342;2022-12-18T08:54:35;19.80;;;14.07;;
8048;SDS011;20935;42.660;23.342;2022-12-18T08:57:00;24.13;;;15.30;;
8048;SDS011;20935;42.660;23.342;2022-12-18T08:59:27;21.73;;;15.30;;
8048;SDS011;20935;42.660;23.342;2022-12-18T09:01:53;22.10;;;14.60;;
8048;SDS011;20935;42.660;23.342;2022-12-18T09:04:24;18.73;;;14.23;;
8048;SDS011;20935;42.660;23.342;2022-12-18T09:06:49;22.43;;;15.67;;
8048;SDS011;20935;42.660;23.342;2022-12-18T09:09:15;24.77;;;16.77;;
8048;SDS011;20935;42.660;23.342;2022-12-18T09:11:40;21.47;;;14.03;;
8048;SDS011;20935;42.660;23.342;2022-12-18T09:14:06;23.30;;;16.07;;
8048;SDS011;20935;42.660;23.342;2022-12-18T09:16:31;24.93;;;17.17;;
8048;SDS011;20935;42.660;23.342;2022-12-18T09:18:57;25.63;;;16.53;;
8048;SDS011;20935;42.660;23.342;2022-12-18T09:21:28;27.17;;;16.80;;
8048;SDS011;20935;42.660;23.342;2022-12-18T09:23:54;25.60;;;15.97;;
8048;SDS011;20935;42.660;23.342;2022-12-18T09:26:20;23.50;;;15.60;;
8048;SDS011;20935;42.660;23.342;2022-12-18T09:28:45;19.03;;;13.67;;
8048;SDS011;20935;42.660;23.342;2022-12-18T09:31:13;20.73;;;13.93;;
8048;SDS011;20935;42.660;23.342;2022-12-18T09:33:39;17.27;;;12.17;;
8048;SDS011;20935;42.660;23.342;2022-12-18T09:36:08;22.13;;;13.67;;
8048;SDS011;20935;42.660;23.342;2022-12-18T09:38:37;20.30;;;14.43;;
8048;SDS011;20935;42.660;23.342;2022-12-18T09:41:04;19.03;;;12.27;;
8048;SDS011;20935;42.660;23.342;2022-12-18T09:43:41;17.70;;;12.07;;
8048;SDS011;20935;42.660;23.342;2022-12-18T09:46:08;19.97;;;11.37;;
8048;SDS011;20935;42.660;23.342;2022-12-18T09:48:36;18.70;;;13.23;;
8048;SDS011;20935;42.660;23.342;2022-12-18T09:51:13;23.00;;;14.07;;
8048;SDS011;20935;42.660;23.342;2022-12-18T09:53:40;18.00;;;12.57;;
8048;SDS011;20935;42.660;23.342;2022-12-18T09:56:10;17.67;;;13.30;;
8048;SDS011;20935;42.660;23.342;2022-12-18T09:58:41;19.17;;;13.83;;
8048;SDS011;20935;42.660;23.342;2022-12-18T10:01:14;21.70;;;13.23;;
8048;SDS011;20935;42.660;23.342;2022-12-18T10:03:41;15.83;;;11.77;;
8048;SDS011;20935;42.660;23.342;2022-12-18T10:06:08;19.30;;;12.50;;
8048;SDS011;20935;42.660;23.342;2022-12-18T10:11:21;19.90;;;12.97;;
8048;SDS011;20935;42.660;23.342;2022-12-18T10:13:49;18.63;;;13.30;;
8048;SDS011;20935;42.660;23.342;2022-12-18T10:16:19;21.47;;;14.63;;
8048;SDS011;20935;42.660;23.342;2022-12-18T10:24:26;21.03;;;14.23;;
8048;SDS011;20935;42.660;23.342;2022-12-18T10:26:55;18.93;;;12.60;;
8048;SDS011;20935;42.660;23.342;2022-12-18T10:29:21;19.90;;;12.50;;
8048;SDS011;20935;42.660;23.342;2022-12-18T10:31:46;19.20;;;13.17;;
8048;SDS011;20935;42.660;23.342;2022-12-18T10:34:14;17.17;;;11.77;;
8048;SDS011;20935;42.660;23.342;2022-12-18T10:36:40;18.90;;;12.67;;
8048;SDS011;20935;42.660;23.342;2022-12-18T10:39:19;13.83;;;9.50;;
8048;SDS011;20935;42.660;23.342;2022-12-18T10:41:44;18.00;;;13.17;;
8048;SDS011;20935;42.660;23.342;2022-12-18T10:46:42;13.20;;;8.27;;
8048;SDS011;20935;42.660;23.342;2022-12-18T10:49:18;21.03;;;12.83;;
8048;SDS011;20935;42.660;23.342;2022-12-18T10:51:43;20.10;;;12.93;;
8048;SDS011;20935;42.660;23.342;2022-12-18T10:54:14;23.00;;;14.73;;
8048;SDS011;20935;42.660;23.342;2022-12-18T10:56:43;22.70;;;13.33;;
8048;SDS011;20935;42.660;23.342;2022-12-18T10:59:10;20.43;;;14.07;;
8048;SDS011;20935;42.660;23.342;2022-12-18T11:01:55;20.67;;;13.07;;
8048;SDS011;20935;42.660;23.342;2022-12-18T11:04:23;20.77;;;13.90;;
8048;SDS011;20935;42.660;23.342;2022-12-18T11:06:52;19.33;;;13.13;;
8048;SDS011;20935;42.660;23.342;2022-12-18T11:09:28;18.67;;;13.10;;
8048;SDS011;20935;42.660;23.342;2022-12-18T11:11:57;18.50;;;12.67;;
8048;SDS011;20935;42.660;23.342;2022-12-18T11:16:49;17.37;;;12.17;;
8048;SDS011;20935;42.660;23.342;2022-12-18T11:21:46;17.87;;;11.83;;
8048;SDS011;20935;42.660;23.342;2022-12-18T11:24:49;16.53;;;11.73;;
8048;SDS011;20935;42.660;23.342;2022-12-18T11:27:04;18.60;;;11.87;;
8048;SDS011;20935;42.660;23.342;2022-12-18T11:34:39;18.03;;;12.63;;
8048;SDS011;20935;42.660;23.342;2022-12-18T11:37:09;17.20;;;11.50;;
8048;SDS011;20935;42.660;23.342;2022-12-18T11:39:44;16.97;;;11.20;;
8048;SDS011;20935;42.660;23.342;2022-12-18T11:45:00;20.03;;;13.00;;
8048;SDS011;20935;42.660;23.342;2022-12-18T11:50:16;18.67;;;12.50;;
8048;SDS011;20935;42.660;23.342;2022-12-18T11:52:42;15.50;;;10.17;;
8048;SDS011;20935;42.660;23.342;2022-12-18T11:55:12;17.23;;;11.37;;
8048;SDS011;20935;42.660;23.342;2022-12-18T11:58:00;17.03;;;11.33;;
8048;SDS011;20935;42.660;23.342;2022-12-18T12:00:28;17.43;;;10.97;;
8048;SDS011;20935;42.660;23.342;2022-12-18T12:08:02;17.97;;;12.10;;
8048;SDS011;20935;42.660;23.342;2022-12-18T12:13:21;18.67;;;13.10;;
8048;SDS011;20935;42.660;23.342;2022-12-18T12:23:35;20.73;;;13.17;;
8048;SDS011;20935;42.660;23.342;2022-12-18T12:26:10;18.00;;;12.37;;
8048;SDS011;20935;42.660;23.342;2022-12-18T12:34:06;19.43;;;11.83;;
8048;SDS011;20935;42.660;23.342;2022-12-18T12:36:41;22.07;;;13.20;;
8048;SDS011;20935;42.660;23.342;2022-12-18T12:39:11;17.67;;;12.50;;
8048;SDS011;20935;42.660;23.342;2022-12-18T12:41:39;19.17;;;12.70;;
8048;SDS011;20935;42.660;23.342;2022-12-18T12:44:26;19.80;;;12.90;;
8048;SDS011;20935;42.660;23.342;2022-12-18T12:46:54;19.67;;;13.63;;
8048;SDS011;20935;42.660;23.342;2022-12-18T12:49:25;19.87;;;13.97;;
8048;SDS011;20935;42.660;23.342;2022-12-18T12:52:03;20.17;;;13.50;;
8048;SDS011;20935;42.660;23.342;2022-12-18T12:54:29;19.63;;;13.57;;
8048;SDS011;20935;42.660;23.342;2022-12-18T12:57:09;19.67;;;13.07;;
8048;SDS011;20935;42.660;23.342;2022-12-18T13:00:09;19.30;;;13.03;;
8048;SDS011;20935;42.660;23.342;2022-12-18T13:02:39;19.83;;;13.23;;
8048;SDS011;20935;42.660;23.342;2022-12-18T13:12:53;20.63;;;14.20;;
8048;SDS011;20935;42.660;23.342;2022-12-18T13:15:26;18.87;;;11.67;;
8048;SDS011;20935;42.660;23.342;2022-12-18T13:20:34;23.23;;;14.63;;
8048;SDS011;20935;42.660;23.342;2022-12-18T13:23:00;21.30;;;14.00;;
8048;SDS011;20935;42.660;23.342;2022-12-18T13:25:32;21.07;;;13.83;;
8048;SDS011;20935;42.660;23.342;2022-12-18T13:35:40;22.70;;;14.77;;
8048;SDS011;20935;42.660;23.342;2022-12-18T13:43:26;17.53;;;12.33;;
8048;SDS011;20935;42.660;23.342;2022-12-18T13:46:02;18.67;;;13.17;;
8048;SDS011;20935;42.660;23.342;2022-12-18T13:48:29;19.77;;;13.53;;
8048;SDS011;20935;42.660;23.342;2022-12-18T13:50:59;20.53;;;13.97;;
8048;SDS011;20935;42.660;23.342;2022-12-18T13:53:33;22.23;;;13.80;;
8048;SDS011;20935;42.660;23.342;2022-12-18T13:55:59;19.60;;;11.57;;
8048;SDS011;20935;42.660;23.342;2022-12-18T13:58:25;21.23;;;14.20;;
8048;SDS011;20935;42.660;23.342;2022-12-18T14:00:50;19.67;;;13.57;;
8048;SDS011;20935;42.660;23.342;2022-12-18T14:03:17;21.10;;;14.33;;
8048;SDS011;20935;42.660;23.342;2022-12-18T14:05:43;22.47;;;14.20;;
8048;SDS011;20935;42.660;23.342;2022-12-18T14:08:11;16.97;;;12.00;;
8048;SDS011;20935;42.660;23.342;2022-12-18T14:10:44;18.57;;;12.47;;
8048;SDS011;20935;42.660;23.342;2022-12-18T14:13:11;17.43;;;11.20;;
8048;SDS011;20935;42.660;23.342;2022-12-18T14:15:43;16.90;;;11.33;;
8048;SDS011;20935;42.660;23.342;2022-12-18T14:20:49;18.10;;;12.60;;
8048;SDS011;20935;42.660;23.342;2022-12-18T14:25:58;17.60;;;11.20;;
8048;SDS011;20935;42.660;23.342;2022-12-18T14:28:26;16.73;;;10.97;;
8048;SDS011;20935;42.660;23.342;2022-12-18T14:30:52;17.07;;;11.17;;
8048;SDS011;20935;42.660;23.342;2022-12-18T14:33:19;15.53;;;10.83;;
8048;SDS011;20935;42.660;23.342;2022-12-18T14:35:55;20.20;;;11.03;;
8048;SDS011;20935;42.660;23.342;2022-12-18T14:38:39;15.23;;;10.20;;
8048;SDS011;20935;42.660;23.342;2022-12-18T14:41:06;16.97;;;11.33;;
8048;SDS011;20935;42.660;23.342;2022-12-18T14:43:35;15.40;;;9.57;;
8048;SDS011;20935;42.660;23.342;2022-12-18T14:46:02;16.17;;;10.80;;
8048;SDS011;20935;42.660;23.342;2022-12-18T14:51:04;19.57;;;11.97;;
8048;SDS011;20935;42.660;23.342;2022-12-18T14:53:32;18.77;;;12.57;;
8048;SDS011;20935;42.660;23.342;2022-12-18T14:55:58;19.10;;;11.20;;
8048;SDS011;20935;42.660;23.342;2022-12-18T14:58:24;16.80;;;10.57;;
8048;SDS011;20935;42.660;23.342;2022-12-18T15:00:49;16.87;;;11.00;;
8048;SDS011;20935;42.660;23.342;2022-12-18T15:03:18;17.27;;;11.77;;
8048;SDS011;20935;42.660;23.342;2022-12-18T15:05:44;17.13;;;11.50;;
8048;SDS011;20935;42.660;23.342;2022-12-18T15:08:29;16.30;;;11.60;;
8048;SDS011;20935;42.660;23.342;2022-12-18T15:10:54;16.40;;;10.93;;
8048;SDS011;20935;42.660;23.342;2022-12-18T15:13:22;16.93;;;11.07;;
8048;SDS011;20935;42.660;23.342;2022-12-18T15:15:50;20.10;;;11.87;;
8048;SDS011;20935;42.660;23.342;2022-12-18T15:18:40;20.97;;;13.80;;
8048;SDS011;20935;42.660;23.342;2022-12-18T15:21:14;17.17;;;11.67;;
8048;SDS011;20935;42.660;23.342;2022-12-18T15:26:10;19.63;;;13.20;;
8048;SDS011;20935;42.660;23.342;2022-12-18T15:28:43;16.70;;;11.50;;
8048;SDS011;20935;42.660;23.342;2022-12-18T15:33:41;18.50;;;10.87;;
8048;SDS011;20935;42.660;23.342;2022-12-18T15:36:12;17.37;;;11.73;;
8048;SDS011;20935;42.660;23.342;2022-12-18T15:38:41;18.83;;;12.03;;
8048;SDS011;20935;42.660;23.342;2022-12-18T15:41:11;19.53;;;12.20;;
8048;SDS011;20935;42.660;23.342;2022-12-18T15:43:38;18.30;;;12.00;;
8048;SDS011;20935;42.660;23.342;2022-12-18T15:46:05;20.27;;;12.90;;
8048;SDS011;20935;42.660;23.342;2022-12-18T15:48:32;17.87;;;11.87;;
8048;SDS011;20935;42.660;23.342;2022-12-18T15:50:57;19.40;;;12.40;;
8048;SDS011;20935;42.660;23.342;2022-12-18T15:53:24;15.57;;;11.73;;
8048;SDS011;20935;42.660;23.342;2022-12-18T15:55:49;15.80;;;10.70;;
8048;SDS011;20935;42.660;23.342;2022-12-18T15:58:33;17.30;;;12.43;;
8048;SDS011;20935;42.660;23.342;2022-12-18T16:00:59;18.30;;;12.10;;
8048;SDS011;20935;42.660;23.342;2022-12-18T16:03:25;18.60;;;11.90;;
8048;SDS011;20935;42.660;23.342;2022-12-18T16:05:50;17.87;;;11.83;;
8048;SDS011;20935;42.660;23.342;2022-12-18T16:08:15;17.93;;;11.93;;
8048;SDS011;20935;42.660;23.342;2022-12-18T16:10:41;19.00;;;11.40;;
8048;SDS011;20935;42.660;23.342;2022-12-18T16:13:10;20.57;;;12.73;;
8048;SDS011;20935;42.660;23.342;2022-12-18T16:15:38;18.63;;;12.80;;
8048;SDS011;20935;42.660;23.342;2022-12-18T16:18:04;18.30;;;12.53;;
8048;SDS011;20935;42.660;23.342;2022-12-18T16:20:29;20.63;;;12.63;;
8048;SDS011;20935;42.660;23.342;2022-12-18T16:22:54;19.00;;;12.23;;
8048;SDS011;20935;42.660;23.342;2022-12-18T16:25:24;18.67;;;12.53;;
8048;SDS011;20935;42.660;23.342;2022-12-18T16:27:50;17.23;;;11.67;;
8048;SDS011;20935;42.660;23.342;2022-12-18T16:30:17;15.97;;;11.07;;